sensor_id;sensor_type;location;lat;lon;timestamp;pressure;altitude;pressure_sealevel;temperature;humidity
35023;BME280;21214;44.912;8.204;2023-04-07T00:00:37;99716.47;;;6.71;88.39
35023;BME280;21214;44.912;8.204;2023-04-07T00:03:03;99725.03;;;6.73;87.62
35023;BME280;21214;44.912;8.204;2023-04-07T00:05:31;99727.56;;;6.75;88.40
35023;BME280;21214;44.912;8.204;2023-04-07T00:07:56;99719.81;;;6.73;87.84
35023;BME280;21214;44.912;8.204;2023-04-07T00:10:21;99728.22;;;6.66;87.74
35023;BME280;21214;44.912;8.204;2023-04-07T00:12:47;99722.50;;;6.61;88.40
35023;BME280;21214;44.912;8.204;2023-04-07T00:15:12;99721.41;;;6.52;88.97
35023;BME280;21214;44.912;8.204;2023-04-07T00:17:38;99740.09;;;6.47;89.77
35023;BME280;21214;44.912;8.204;2023-04-07T00:20:03;99729.53;;;6.36;90.57
35023;BME280;21214;44.912;8.204;2023-04-07T00:22:28;99734.56;;;6.15;91.48
35023;BME280;21214;44.912;8.204;2023-04-07T00:24:54;99727.38;;;6.06;92.37
35023;BME280;21214;44.912;8.204;2023-04-07T00:27:19;99723.63;;;5.85;93.41
35023;BME280;21214;44.912;8.204;2023-04-07T00:29:45;99721.66;;;5.76;93.55
35023;BME280;21214;44.912;8.204;2023-04-07T00:32:11;99720.00;;;5.75;93.62
35023;BME280;21214;44.912;8.204;2023-04-07T00:34:36;99709.09;;;5.81;92.83
35023;BME280;21214;44.912;8.204;2023-04-07T00:37:02;99714.94;;;5.72;94.25
35023;BME280;21214;44.912;8.204;2023-04-07T00:39:27;99712.53;;;5.82;93.29
35023;BME280;21214;44.912;8.204;2023-04-07T00:41:52;99715.16;;;5.82;94.30
35023;BME280;21214;44.912;8.204;2023-04-07T00:44:18;99711.38;;;5.73;94.25
35023;BME280;21214;44.912;8.204;2023-04-07T00:46:43;99710.25;;;5.77;94.03
35023;BME280;21214;44.912;8.204;2023-04-07T00:49:11;99713.56;;;5.79;93.35
35023;BME280;21214;44.912;8.204;2023-04-07T00:51:37;99716.09;;;5.81;93.49
35023;BME280;21214;44.912;8.204;2023-04-07T00:54:02;99718.91;;;5.77;94.08
35023;BME280;21214;44.912;8.204;2023-04-07T00:56:28;99717.06;;;5.67;94.92
35023;BME280;21214;44.912;8.204;2023-04-07T00:58:53;99716.66;;;5.60;95.37
35023;BME280;21214;44.912;8.204;2023-04-07T01:01:23;99716.66;;;5.60;95.86
35023;BME280;21214;44.912;8.204;2023-04-07T01:03:56;99723.78;;;5.58;94.82
35023;BME280;21214;44.912;8.204;2023-04-07T01:06:23;99727.25;;;5.59;94.99
35023;BME280;21214;44.912;8.204;2023-04-07T01:09:10;99722.84;;;5.59;94.02
35023;BME280;21214;44.912;8.204;2023-04-07T01:14:06;99711.81;;;5.67;92.74
35023;BME280;21214;44.912;8.204;2023-04-07T01:16:48;99715.63;;;5.63;93.27
35023;BME280;21214;44.912;8.204;2023-04-07T01:21:51;99719.69;;;5.54;94.18
35023;BME280;21214;44.912;8.204;2023-04-07T01:27:13;99716.69;;;5.48;94.38
35023;BME280;21214;44.912;8.204;2023-04-07T01:29:43;99714.59;;;5.53;93.05
35023;BME280;21214;44.912;8.204;2023-04-07T01:32:12;99706.44;;;5.45;93.05
35023;BME280;21214;44.912;8.204;2023-04-07T01:34:38;99700.34;;;5.44;92.78
35023;BME280;21214;44.912;8.204;2023-04-07T01:37:05;99698.38;;;5.48;92.65
35023;BME280;21214;44.912;8.204;2023-04-07T01:39:31;99697.91;;;5.54;92.13
35023;BME280;21214;44.912;8.204;2023-04-07T01:41:58;99691.03;;;5.53;93.16
35023;BME280;21214;44.912;8.204;2023-04-07T01:44:26;99707.28;;;5.07;95.33
35023;BME280;21214;44.912;8.204;2023-04-07T01:46:52;99706.88;;;5.01;96.68
35023;BME280;21214;44.912;8.204;2023-04-07T01:49:18;99710.28;;;4.76;97.38
35023;BME280;21214;44.912;8.204;2023-04-07T01:51:43;99711.41;;;4.72;98.75
35023;BME280;21214;44.912;8.204;2023-04-07T01:54:14;99707.69;;;4.76;99.06
35023;BME280;21214;44.912;8.204;2023-04-07T01:56:39;99705.59;;;4.81;98.50
35023;BME280;21214;44.912;8.204;2023-04-07T01:59:05;99703.72;;;4.83;97.99
35023;BME280;21214;44.912;8.204;2023-04-07T02:01:31;99718.53;;;4.70;98.48
35023;BME280;21214;44.912;8.204;2023-04-07T02:04:01;99718.94;;;4.64;99.67
35023;BME280;21214;44.912;8.204;2023-04-07T02:06:38;99719.13;;;4.61;99.81
35023;BME280;21214;44.912;8.204;2023-04-07T02:09:06;99714.84;;;4.60;99.67
35023;BME280;21214;44.912;8.204;2023-04-07T02:11:32;99708.63;;;4.35;100.00
35023;BME280;21214;44.912;8.204;2023-04-07T02:14:01;99716.97;;;4.28;100.00
35023;BME280;21214;44.912;8.204;2023-04-07T02:16:32;99716.31;;;4.24;100.00
35023;BME280;21214;44.912;8.204;2023-04-07T02:18:59;99708.81;;;4.32;100.00
35023;BME280;21214;44.912;8.204;2023-04-07T02:21:24;99707.34;;;4.28;100.00
35023;BME280;21214;44.912;8.204;2023-04-07T02:23:51;99702.66;;;4.33;100.00
35023;BME280;21214;44.912;8.204;2023-04-07T02:26:16;99698.91;;;4.37;100.00
35023;BME280;21214;44.912;8.204;2023-04-07T02:28:42;99692.34;;;4.44;100.00
35023;BME280;21214;44.912;8.204;2023-04-07T02:31:08;99686.19;;;4.45;100.00
35023;BME280;21214;44.912;8.204;2023-04-07T02:33:33;99681.16;;;4.42;100.00
35023;BME280;21214;44.912;8.204;2023-04-07T02:35:59;99685.97;;;4.48;100.00
35023;BME280;21214;44.912;8.204;2023-04-07T02:38:26;99689.38;;;4.36;100.00
35023;BME280;21214;44.912;8.204;2023-04-07T02:40:52;99691.19;;;4.09;100.00
35023;BME280;21214;44.912;8.204;2023-04-07T02:43:18;99689.03;;;3.89;100.00
35023;BME280;21214;44.912;8.204;2023-04-07T02:45:44;99687.88;;;3.93;100.00
35023;BME280;21214;44.912;8.204;2023-04-07T02:48:10;99682.81;;;4.04;100.00
35023;BME280;21214;44.912;8.204;2023-04-07T02:50:35;99675.53;;;4.09;100.00
35023;BME280;21214;44.912;8.204;2023-04-07T02:53:01;99673.69;;;3.97;100.00
35023;BME280;21214;44.912;8.204;2023-04-07T02:55:26;99673.13;;;4.06;100.00
35023;BME280;21214;44.912;8.204;2023-04-07T02:57:51;99671.75;;;4.13;100.00
35023;BME280;21214;44.912;8.204;2023-04-07T03:00:28;99673.44;;;4.14;100.00
35023;BME280;21214;44.912;8.204;2023-04-07T03:03:05;99656.75;;;4.17;100.00
35023;BME280;21214;44.912;8.204;2023-04-07T03:05:34;99648.16;;;4.15;100.00
35023;BME280;21214;44.912;8.204;2023-04-07T03:08:02;99650.03;;;4.12;100.00
35023;BME280;21214;44.912;8.204;2023-04-07T03:10:28;99646.31;;;4.17;100.00
35023;BME280;21214;44.912;8.204;2023-04-07T03:12:53;99641.22;;;4.01;100.00
35023;BME280;21214;44.912;8.204;2023-04-07T03:15:19;99644.47;;;3.78;100.00
35023;BME280;21214;44.912;8.204;2023-04-07T03:17:46;99648.81;;;3.64;100.00
35023;BME280;21214;44.912;8.204;2023-04-07T03:20:11;99649.75;;;3.63;100.00
35023;BME280;21214;44.912;8.204;2023-04-07T03:22:37;99663.41;;;3.26;100.00
35023;BME280;21214;44.912;8.204;2023-04-07T03:25:05;99661.56;;;3.00;100.00
35023;BME280;21214;44.912;8.204;2023-04-07T03:27:31;99666.75;;;2.85;100.00
35023;BME280;21214;44.912;8.204;2023-04-07T03:29:57;99672.47;;;2.62;100.00
35023;BME280;21214;44.912;8.204;2023-04-07T03:32:24;99667.63;;;2.56;100.00
35023;BME280;21214;44.912;8.204;2023-04-07T03:34:50;99664.81;;;2.45;100.00
35023;BME280;21214;44.912;8.204;2023-04-07T03:37:16;99663.03;;;2.45;100.00
35023;BME280;21214;44.912;8.204;2023-04-07T03:39:42;99659.59;;;2.45;100.00
35023;BME280;21214;44.912;8.204;2023-04-07T03:42:22;99649.53;;;2.39;100.00
35023;BME280;21214;44.912;8.204;2023-04-07T03:44:50;99651.22;;;2.40;100.00
35023;BME280;21214;44.912;8.204;2023-04-07T03:47:16;99647.50;;;2.44;100.00
35023;BME280;21214;44.912;8.204;2023-04-07T03:49:47;99654.03;;;2.51;100.00
35023;BME280;21214;44.912;8.204;2023-04-07T03:52:12;99655.53;;;2.55;100.00
35023;BME280;21214;44.912;8.204;2023-04-07T03:54:38;99657.03;;;2.59;100.00
35023;BME280;21214;44.912;8.204;2023-04-07T03:57:04;99654.28;;;2.76;100.00
35023;BME280;21214;44.912;8.204;2023-04-07T03:59:34;99653.97;;;2.95;100.00
35023;BME280;21214;44.912;8.204;2023-04-07T04:02:02;99648.88;;;3.08;100.00
35023;BME280;21214;44.912;8.204;2023-04-07T04:04:28;99644.13;;;3.14;100.00
35023;BME280;21214;44.912;8.204;2023-04-07T04:06:54;99639.84;;;3.27;100.00
35023;BME280;21214;44.912;8.204;2023-04-07T04:09:27;99641.59;;;3.41;100.00
35023;BME280;21214;44.912;8.204;2023-04-07T04:11:53;99640.09;;;3.51;100.00
35023;BME280;21214;44.912;8.204;2023-04-07T04:14:19;99643.63;;;3.50;100.00
35023;BME280;21214;44.912;8.204;2023-04-07T04:16:53;99638.94;;;3.55;100.00
35023;BME280;21214;44.912;8.204;2023-04-07T04:19:25;99636.88;;;3.60;100.00
35023;BME280;21214;44.912;8.204;2023-04-07T04:21:51;99632.25;;;3.51;100.00
35023;BME280;21214;44.912;8.204;2023-04-07T04:24:19;99639.59;;;3.59;100.00
35023;BME280;21214;44.912;8.204;2023-04-07T04:26:46;99641.91;;;3.63;100.00
35023;BME280;21214;44.912;8.204;2023-04-07T04:29:13;99638.56;;;3.61;100.00
35023;BME280;21214;44.912;8.204;2023-04-07T04:31:41;99639.75;;;3.15;100.00
35023;BME280;21214;44.912;8.204;2023-04-07T04:34:08;99652.97;;;2.98;100.00
35023;BME280;21214;44.912;8.204;2023-04-07T04:36:33;99646.25;;;2.79;100.00
35023;BME280;21214;44.912;8.204;2023-04-07T04:39:03;99656.66;;;2.65;100.00
35023;BME280;21214;44.912;8.204;2023-04-07T04:41:30;99650.03;;;2.60;100.00
35023;BME280;21214;44.912;8.204;2023-04-07T04:43:55;99647.19;;;2.78;100.00
35023;BME280;21214;44.912;8.204;2023-04-07T04:46:23;99651.56;;;2.92;100.00
35023;BME280;21214;44.912;8.204;2023-04-07T04:48:49;99657.34;;;2.97;100.00
35023;BME280;21214;44.912;8.204;2023-04-07T04:51:17;99655.00;;;3.07;100.00
35023;BME280;21214;44.912;8.204;2023-04-07T04:53:46;99655.41;;;3.15;100.00
35023;BME280;21214;44.912;8.204;2023-04-07T04:56:12;99652.22;;;3.10;100.00
35023;BME280;21214;44.912;8.204;2023-04-07T04:58:41;99654.09;;;3.08;100.00
35023;BME280;21214;44.912;8.204;2023-04-07T05:01:12;99657.63;;;3.07;100.00
35023;BME280;21214;44.912;8.204;2023-04-07T05:03:47;99654.44;;;3.02;100.00
35023;BME280;21214;44.912;8.204;2023-04-07T05:06:17;99647.22;;;2.93;100.00
35023;BME280;21214;44.912;8.204;2023-04-07T05:08:46;99658.19;;;2.98;100.00
35023;BME280;21214;44.912;8.204;2023-04-07T05:11:12;99660.97;;;3.09;100.00
35023;BME280;21214;44.912;8.204;2023-04-07T05:13:39;99654.75;;;3.11;100.00
35023;BME280;21214;44.912;8.204;2023-04-07T05:16:05;99650.91;;;3.03;100.00
35023;BME280;21214;44.912;8.204;2023-04-07T05:18:30;99653.25;;;2.79;100.00
35023;BME280;21214;44.912;8.204;2023-04-07T05:20:57;99652.03;;;2.84;100.00
35023;BME280;21214;44.912;8.204;2023-04-07T05:23:24;99646.09;;;2.97;100.00
35023;BME280;21214;44.912;8.204;2023-04-07T05:25:50;99651.19;;;3.12;100.00
35023;BME280;21214;44.912;8.204;2023-04-07T05:28:16;99655.66;;;3.24;100.00
35023;BME280;21214;44.912;8.204;2023-04-07T05:30:42;99659.28;;;3.36;100.00
35023;BME280;21214;44.912;8.204;2023-04-07T05:33:08;99651.81;;;3.44;100.00
35023;BME280;21214;44.912;8.204;2023-04-07T05:35:52;99660.13;;;3.51;100.00
35023;BME280;21214;44.912;8.204;2023-04-07T05:38:18;99668.19;;;3.60;100.00
35023;BME280;21214;44.912;8.204;2023-04-07T05:40:44;99655.97;;;3.61;100.00
35023;BME280;21214;44.912;8.204;2023-04-07T05:43:17;99648.81;;;3.64;100.00
35023;BME280;21214;44.912;8.204;2023-04-07T05:45:42;99650.84;;;3.59;100.00
35023;BME280;21214;44.912;8.204;2023-04-07T05:48:09;99654.13;;;3.63;100.00
35023;BME280;21214;44.912;8.204;2023-04-07T05:50:40;99643.03;;;3.59;100.00
35023;BME280;21214;44.912;8.204;2023-04-07T05:53:09;99644.38;;;3.52;100.00
35023;BME280;21214;44.912;8.204;2023-04-07T05:55:35;99645.13;;;3.40;100.00
35023;BME280;21214;44.912;8.204;2023-04-07T05:58:02;99652.63;;;3.18;100.00
35023;BME280;21214;44.912;8.204;2023-04-07T06:00:29;99655.66;;;2.96;100.00
35023;BME280;21214;44.912;8.204;2023-04-07T06:03:02;99640.88;;;2.97;100.00
35023;BME280;21214;44.912;8.204;2023-04-07T06:05:31;99637.50;;;2.95;100.00
35023;BME280;21214;44.912;8.204;2023-04-07T06:07:59;99642.44;;;3.13;100.00
35023;BME280;21214;44.912;8.204;2023-04-07T06:10:26;99635.25;;;3.31;100.00
35023;BME280;21214;44.912;8.204;2023-04-07T06:12:51;99636.00;;;3.47;100.00
35023;BME280;21214;44.912;8.204;2023-04-07T06:15:17;99633.44;;;3.60;100.00
35023;BME280;21214;44.912;8.204;2023-04-07T06:17:42;99636.03;;;3.60;100.00
35023;BME280;21214;44.912;8.204;2023-04-07T06:20:10;99637.81;;;3.59;100.00
35023;BME280;21214;44.912;8.204;2023-04-07T06:22:36;99637.78;;;3.74;100.00
35023;BME280;21214;44.912;8.204;2023-04-07T06:25:01;99640.34;;;3.88;100.00
35023;BME280;21214;44.912;8.204;2023-04-07T06:27:26;99638.06;;;3.96;100.00
35023;BME280;21214;44.912;8.204;2023-04-07T06:29:52;99632.06;;;4.08;100.00
35023;BME280;21214;44.912;8.204;2023-04-07T06:32:18;99629.00;;;4.28;100.00
35023;BME280;21214;44.912;8.204;2023-04-07T06:34:44;99629.22;;;4.50;100.00
35023;BME280;21214;44.912;8.204;2023-04-07T06:37:10;99632.06;;;4.73;100.00
35023;BME280;21214;44.912;8.204;2023-04-07T06:39:36;99638.66;;;4.91;100.00
35023;BME280;21214;44.912;8.204;2023-04-07T06:42:02;99640.94;;;5.08;100.00
35023;BME280;21214;44.912;8.204;2023-04-07T06:44:33;99640.75;;;5.24;100.00
35023;BME280;21214;44.912;8.204;2023-04-07T06:46:59;99639.66;;;5.39;100.00
35023;BME280;21214;44.912;8.204;2023-04-07T06:49:24;99634.16;;;5.55;100.00
35023;BME280;21214;44.912;8.204;2023-04-07T06:51:50;99644.00;;;5.64;100.00
35023;BME280;21214;44.912;8.204;2023-04-07T06:54:15;99647.41;;;5.77;100.00
35023;BME280;21214;44.912;8.204;2023-04-07T06:56:41;99647.25;;;5.91;100.00
35023;BME280;21214;44.912;8.204;2023-04-07T06:59:07;99654.13;;;6.05;100.00
35023;BME280;21214;44.912;8.204;2023-04-07T07:01:32;99645.47;;;6.15;100.00
35023;BME280;21214;44.912;8.204;2023-04-07T07:03:58;99644.56;;;6.28;100.00
35023;BME280;21214;44.912;8.204;2023-04-07T07:06:25;99649.13;;;6.37;100.00
35023;BME280;21214;44.912;8.204;2023-04-07T07:08:50;99645.94;;;6.44;100.00
35023;BME280;21214;44.912;8.204;2023-04-07T07:11:16;99636.31;;;6.56;100.00
35023;BME280;21214;44.912;8.204;2023-04-07T07:13:41;99637.19;;;6.68;100.00
35023;BME280;21214;44.912;8.204;2023-04-07T07:16:07;99628.28;;;6.81;100.00
35023;BME280;21214;44.912;8.204;2023-04-07T07:18:32;99631.50;;;6.96;100.00
35023;BME280;21214;44.912;8.204;2023-04-07T07:20:57;99615.66;;;7.09;100.00
35023;BME280;21214;44.912;8.204;2023-04-07T07:23:23;99614.81;;;7.19;100.00
35023;BME280;21214;44.912;8.204;2023-04-07T07:25:48;99619.72;;;7.24;100.00
35023;BME280;21214;44.912;8.204;2023-04-07T07:28:13;99615.16;;;7.37;100.00
35023;BME280;21214;44.912;8.204;2023-04-07T07:30:39;99619.69;;;7.46;100.00
35023;BME280;21214;44.912;8.204;2023-04-07T07:33:08;99619.56;;;7.59;100.00
35023;BME280;21214;44.912;8.204;2023-04-07T07:35:33;99610.31;;;7.75;100.00
35023;BME280;21214;44.912;8.204;2023-04-07T07:37:59;99615.44;;;7.88;100.00
35023;BME280;21214;44.912;8.204;2023-04-07T07:40:25;99610.25;;;7.98;100.00
35023;BME280;21214;44.912;8.204;2023-04-07T07:42:50;99617.84;;;8.12;100.00
35023;BME280;21214;44.912;8.204;2023-04-07T07:45:15;99616.00;;;8.23;100.00
35023;BME280;21214;44.912;8.204;2023-04-07T07:47:43;99612.25;;;8.37;99.80
35023;BME280;21214;44.912;8.204;2023-04-07T07:50:09;99610.78;;;8.44;100.00
35023;BME280;21214;44.912;8.204;2023-04-07T07:52:34;99612.28;;;8.58;100.00
35023;BME280;21214;44.912;8.204;2023-04-07T07:55:00;99612.75;;;8.73;100.00
35023;BME280;21214;44.912;8.204;2023-04-07T07:57:25;99610.75;;;8.86;100.00
35023;BME280;21214;44.912;8.204;2023-04-07T07:59:51;99615.69;;;9.00;100.00
35023;BME280;21214;44.912;8.204;2023-04-07T08:02:17;99615.16;;;9.06;100.00
35023;BME280;21214;44.912;8.204;2023-04-07T08:04:43;99613.53;;;9.15;100.00
35023;BME280;21214;44.912;8.204;2023-04-07T08:07:08;99602.78;;;9.27;100.00
35023;BME280;21214;44.912;8.204;2023-04-07T08:09:36;99612.25;;;9.39;100.00
35023;BME280;21214;44.912;8.204;2023-04-07T08:12:01;99601.72;;;9.49;100.00
35023;BME280;21214;44.912;8.204;2023-04-07T08:14:27;99607.56;;;9.53;100.00
35023;BME280;21214;44.912;8.204;2023-04-07T08:16:53;99608.72;;;9.60;100.00
35023;BME280;21214;44.912;8.204;2023-04-07T08:19:18;99605.13;;;9.70;100.00
35023;BME280;21214;44.912;8.204;2023-04-07T08:21:44;99599.00;;;9.79;100.00
35023;BME280;21214;44.912;8.204;2023-04-07T08:24:09;99604.03;;;9.92;100.00
35023;BME280;21214;44.912;8.204;2023-04-07T08:26:35;99595.44;;;10.09;100.00
35023;BME280;21214;44.912;8.204;2023-04-07T08:29:00;99591.28;;;10.26;100.00
35023;BME280;21214;44.912;8.204;2023-04-07T08:31:25;99582.97;;;10.40;100.00
35023;BME280;21214;44.912;8.204;2023-04-07T08:33:51;99585.97;;;10.55;100.00
35023;BME280;21214;44.912;8.204;2023-04-07T08:36:21;99574.84;;;10.71;100.00
35023;BME280;21214;44.912;8.204;2023-04-07T08:38:47;99567.59;;;10.82;100.00
35023;BME280;21214;44.912;8.204;2023-04-07T08:41:13;99564.78;;;10.93;100.00
35023;BME280;21214;44.912;8.204;2023-04-07T08:43:41;99563.91;;;11.02;100.00
35023;BME280;21214;44.912;8.204;2023-04-07T08:46:08;99566.66;;;11.11;100.00
35023;BME280;21214;44.912;8.204;2023-04-07T08:48:34;99559.94;;;11.16;100.00
35023;BME280;21214;44.912;8.204;2023-04-07T08:51:05;99552.66;;;11.28;100.00
35023;BME280;21214;44.912;8.204;2023-04-07T08:53:34;99561.75;;;11.43;100.00
35023;BME280;21214;44.912;8.204;2023-04-07T08:56:01;99565.25;;;11.61;100.00
35023;BME280;21214;44.912;8.204;2023-04-07T08:58:27;99567.09;;;11.78;100.00
35023;BME280;21214;44.912;8.204;2023-04-07T09:00:54;99573.56;;;11.94;100.00
35023;BME280;21214;44.912;8.204;2023-04-07T09:03:20;99562.75;;;12.05;100.00
35023;BME280;21214;44.912;8.204;2023-04-07T09:05:47;99566.09;;;12.07;100.00
35023;BME280;21214;44.912;8.204;2023-04-07T09:08:13;99556.84;;;12.11;100.00
35023;BME280;21214;44.912;8.204;2023-04-07T09:10:38;99559.56;;;12.19;100.00
35023;BME280;21214;44.912;8.204;2023-04-07T09:13:04;99550.78;;;12.36;100.00
35023;BME280;21214;44.912;8.204;2023-04-07T09:15:30;99546.22;;;12.46;100.00
35023;BME280;21214;44.912;8.204;2023-04-07T09:17:56;99549.53;;;12.48;100.00
35023;BME280;21214;44.912;8.204;2023-04-07T09:20:21;99541.97;;;12.53;100.00
35023;BME280;21214;44.912;8.204;2023-04-07T09:22:47;99547.66;;;12.66;100.00
35023;BME280;21214;44.912;8.204;2023-04-07T09:25:18;99542.50;;;12.91;100.00
35023;BME280;21214;44.912;8.204;2023-04-07T09:30:42;99533.72;;;13.16;100.00
35023;BME280;21214;44.912;8.204;2023-04-07T09:33:17;99529.94;;;13.27;100.00
35023;BME280;21214;44.912;8.204;2023-04-07T09:35:51;99529.81;;;13.36;100.00
35023;BME280;21214;44.912;8.204;2023-04-07T09:38:17;99526.88;;;13.47;100.00
35023;BME280;21214;44.912;8.204;2023-04-07T09:40:42;99515.13;;;13.58;100.00
35023;BME280;21214;44.912;8.204;2023-04-07T09:43:13;99513.97;;;13.69;100.00
35023;BME280;21214;44.912;8.204;2023-04-07T09:45:39;99521.94;;;13.77;100.00
35023;BME280;21214;44.912;8.204;2023-04-07T09:48:05;99520.28;;;13.76;100.00
35023;BME280;21214;44.912;8.204;2023-04-07T09:50:34;99516.31;;;13.80;100.00
35023;BME280;21214;44.912;8.204;2023-04-07T09:53:00;99515.16;;;13.82;100.00
35023;BME280;21214;44.912;8.204;2023-04-07T09:55:27;99519.13;;;13.86;100.00
35023;BME280;21214;44.912;8.204;2023-04-07T09:57:54;99514.31;;;13.82;100.00
35023;BME280;21214;44.912;8.204;2023-04-07T10:00:20;99509.84;;;13.74;100.00
35023;BME280;21214;44.912;8.204;2023-04-07T10:02:45;99512.19;;;13.77;100.00
35023;BME280;21214;44.912;8.204;2023-04-07T10:05:12;99504.56;;;13.82;100.00
35023;BME280;21214;44.912;8.204;2023-04-07T10:07:37;99506.88;;;13.85;100.00
35023;BME280;21214;44.912;8.204;2023-04-07T10:10:03;99506.34;;;13.74;100.00
35023;BME280;21214;44.912;8.204;2023-04-07T10:12:29;99501.38;;;13.71;100.00
35023;BME280;21214;44.912;8.204;2023-04-07T10:14:56;99502.03;;;13.57;100.00
35023;BME280;21214;44.912;8.204;2023-04-07T10:17:22;99505.84;;;13.54;100.00
35023;BME280;21214;44.912;8.204;2023-04-07T10:19:48;99503.50;;;13.51;100.00
35023;BME280;21214;44.912;8.204;2023-04-07T10:22:14;99496.72;;;13.48;100.00
35023;BME280;21214;44.912;8.204;2023-04-07T10:27:39;99494.34;;;13.37;100.00
35023;BME280;21214;44.912;8.204;2023-04-07T10:30:11;99486.25;;;13.39;100.00
35023;BME280;21214;44.912;8.204;2023-04-07T10:32:50;99501.66;;;13.35;100.00
35023;BME280;21214;44.912;8.204;2023-04-07T10:35:16;99498.66;;;13.30;100.00
35023;BME280;21214;44.912;8.204;2023-04-07T10:38:08;99497.31;;;13.18;100.00
35023;BME280;21214;44.912;8.204;2023-04-07T10:40:27;99500.25;;;13.15;100.00
35023;BME280;21214;44.912;8.204;2023-04-07T10:42:53;99496.13;;;13.13;100.00
35023;BME280;21214;44.912;8.204;2023-04-07T10:45:29;99500.59;;;13.12;100.00
35023;BME280;21214;44.912;8.204;2023-04-07T10:50:29;99488.59;;;13.08;100.00
35023;BME280;21214;44.912;8.204;2023-04-07T10:53:04;99492.25;;;13.07;100.00
35023;BME280;21214;44.912;8.204;2023-04-07T10:55:53;99485.94;;;13.08;100.00
35023;BME280;21214;44.912;8.204;2023-04-07T10:58:24;99480.00;;;13.06;100.00
35023;BME280;21214;44.912;8.204;2023-04-07T11:01:35;99483.63;;;13.05;100.00
35023;BME280;21214;44.912;8.204;2023-04-07T11:03:39;99484.97;;;13.01;100.00
35023;BME280;21214;44.912;8.204;2023-04-07T11:06:08;99484.63;;;13.04;100.00
35023;BME280;21214;44.912;8.204;2023-04-07T11:08:41;99478.34;;;13.05;100.00
35023;BME280;21214;44.912;8.204;2023-04-07T11:11:07;99474.59;;;13.16;100.00
35023;BME280;21214;44.912;8.204;2023-04-07T11:13:39;99478.09;;;13.24;100.00
35023;BME280;21214;44.912;8.204;2023-04-07T11:16:04;99487.84;;;13.16;100.00
35023;BME280;21214;44.912;8.204;2023-04-07T11:18:30;99487.03;;;13.23;100.00
35023;BME280;21214;44.912;8.204;2023-04-07T11:20:56;99489.69;;;13.23;100.00
35023;BME280;21214;44.912;8.204;2023-04-07T11:23:22;99494.00;;;13.24;100.00
35023;BME280;21214;44.912;8.204;2023-04-07T11:25:50;99493.81;;;13.18;100.00
35023;BME280;21214;44.912;8.204;2023-04-07T11:28:17;99489.00;;;13.21;100.00
35023;BME280;21214;44.912;8.204;2023-04-07T11:30:47;99487.34;;;13.20;100.00
35023;BME280;21214;44.912;8.204;2023-04-07T11:33:14;99486.72;;;13.26;100.00
35023;BME280;21214;44.912;8.204;2023-04-07T11:35:47;99491.03;;;13.27;100.00
35023;BME280;21214;44.912;8.204;2023-04-07T11:38:12;99481.75;;;13.31;100.00
35023;BME280;21214;44.912;8.204;2023-04-07T11:40:38;99481.41;;;13.26;100.00
35023;BME280;21214;44.912;8.204;2023-04-07T11:43:22;99485.31;;;13.06;100.00
35023;BME280;21214;44.912;8.204;2023-04-07T11:48:33;99492.94;;;12.75;100.00
35023;BME280;21214;44.912;8.204;2023-04-07T11:50:59;99494.41;;;12.69;100.00
35023;BME280;21214;44.912;8.204;2023-04-07T11:53:28;99498.88;;;12.43;100.00
35023;BME280;21214;44.912;8.204;2023-04-07T11:56:00;99490.97;;;12.25;100.00
35023;BME280;21214;44.912;8.204;2023-04-07T11:58:26;99497.22;;;12.16;100.00
35023;BME280;21214;44.912;8.204;2023-04-07T12:00:55;99497.00;;;12.10;100.00
35023;BME280;21214;44.912;8.204;2023-04-07T12:03:21;99497.25;;;11.99;100.00
35023;BME280;21214;44.912;8.204;2023-04-07T12:05:47;99488.50;;;11.80;100.00
35023;BME280;21214;44.912;8.204;2023-04-07T12:08:13;99488.53;;;11.71;100.00
35023;BME280;21214;44.912;8.204;2023-04-07T12:10:39;99489.63;;;11.60;100.00
35023;BME280;21214;44.912;8.204;2023-04-07T12:13:05;99492.16;;;11.52;100.00
35023;BME280;21214;44.912;8.204;2023-04-07T12:15:31;99487.47;;;11.46;100.00
35023;BME280;21214;44.912;8.204;2023-04-07T12:17:57;99496.97;;;11.39;100.00
35023;BME280;21214;44.912;8.204;2023-04-07T12:20:22;99484.22;;;11.34;100.00
35023;BME280;21214;44.912;8.204;2023-04-07T12:22:48;99480.38;;;11.29;100.00
35023;BME280;21214;44.912;8.204;2023-04-07T12:25:13;99488.75;;;11.24;100.00
35023;BME280;21214;44.912;8.204;2023-04-07T12:27:38;99493.47;;;11.21;100.00
35023;BME280;21214;44.912;8.204;2023-04-07T12:30:04;99490.50;;;11.06;100.00
35023;BME280;21214;44.912;8.204;2023-04-07T12:32:29;99500.81;;;10.99;100.00
35023;BME280;21214;44.912;8.204;2023-04-07T12:34:56;99496.81;;;10.95;100.00
35023;BME280;21214;44.912;8.204;2023-04-07T12:37:22;99502.28;;;10.84;100.00
35023;BME280;21214;44.912;8.204;2023-04-07T12:39:49;99507.84;;;10.81;100.00
35023;BME280;21214;44.912;8.204;2023-04-07T12:42:16;99514.41;;;10.77;100.00
35023;BME280;21214;44.912;8.204;2023-04-07T12:44:41;99525.16;;;10.66;100.00
35023;BME280;21214;44.912;8.204;2023-04-07T12:47:07;99530.75;;;10.53;100.00
35023;BME280;21214;44.912;8.204;2023-04-07T12:49:32;99527.00;;;10.46;100.00
35023;BME280;21214;44.912;8.204;2023-04-07T12:51:57;99517.03;;;10.40;100.00
35023;BME280;21214;44.912;8.204;2023-04-07T12:54:23;99517.44;;;10.36;100.00
35023;BME280;21214;44.912;8.204;2023-04-07T12:56:48;99518.00;;;10.20;100.00
35023;BME280;21214;44.912;8.204;2023-04-07T12:59:14;99513.28;;;10.04;100.00
35023;BME280;21214;44.912;8.204;2023-04-07T13:01:40;99504.41;;;9.96;100.00
35023;BME280;21214;44.912;8.204;2023-04-07T13:04:05;99499.31;;;9.94;100.00
35023;BME280;21214;44.912;8.204;2023-04-07T13:06:30;99509.13;;;10.02;100.00
35023;BME280;21214;44.912;8.204;2023-04-07T13:08:56;99522.19;;;9.94;100.00
35023;BME280;21214;44.912;8.204;2023-04-07T13:11:22;99529.94;;;9.85;100.00
35023;BME280;21214;44.912;8.204;2023-04-07T13:13:47;99513.56;;;9.72;100.00
35023;BME280;21214;44.912;8.204;2023-04-07T13:16:12;99509.84;;;9.75;100.00